sensor_id;sensor_type;location;lat;lon;timestamp;P1;durP1;ratioP1;P2;durP2;ratioP2
12663;SDS011;6396;58.490;15.528;2023-02-03T00:01:42;3.70;;;1.80;;
12663;SDS011;6396;58.490;15.528;2023-02-03T00:04:09;2.13;;;1.80;;
12663;SDS011;6396;58.490;15.528;2023-02-03T00:06:35;1.83;;;1.63;;
12663;SDS011;6396;58.490;15.528;2023-02-03T00:09:02;3.50;;;2.00;;
12663;SDS011;6396;58.490;15.528;2023-02-03T00:11:29;2.77;;;1.87;;
12663;SDS011;6396;58.490;15.528;2023-02-03T00:13:58;2.50;;;1.83;;
12663;SDS011;6396;58.490;15.528;2023-02-03T00:16:25;2.87;;;1.83;;
12663;SDS011;6396;58.490;15.528;2023-02-03T00:18:52;2.77;;;1.90;;
12663;SDS011;6396;58.490;15.528;2023-02-03T00:21:18;2.30;;;1.80;;
12663;SDS011;6396;58.490;15.528;2023-02-03T00:23:45;3.00;;;1.90;;
12663;SDS011;6396;58.490;15.528;2023-02-03T00:26:12;3.13;;;2.13;;
12663;SDS011;6396;58.490;15.528;2023-02-03T00:28:41;2.47;;;1.70;;
12663;SDS011;6396;58.490;15.528;2023-02-03T00:31:14;2.00;;;1.77;;
12663;SDS011;6396;58.490;15.528;2023-02-03T00:33:42;3.10;;;1.90;;
12663;SDS011;6396;58.490;15.528;2023-02-03T00:36:09;2.57;;;1.90;;
12663;SDS011;6396;58.490;15.528;2023-02-03T00:38:37;1.93;;;1.80;;
12663;SDS011;6396;58.490;15.528;2023-02-03T00:41:03;3.67;;;1.60;;
12663;SDS011;6396;58.490;15.528;2023-02-03T00:43:31;2.70;;;1.97;;
12663;SDS011;6396;58.490;15.528;2023-02-03T00:45:58;2.23;;;1.70;;
12663;SDS011;6396;58.490;15.528;2023-02-03T00:48:26;1.80;;;1.70;;
12663;SDS011;6396;58.490;15.528;2023-02-03T00:50:53;3.47;;;1.87;;
12663;SDS011;6396;58.490;15.528;2023-02-03T00:53:20;4.00;;;1.90;;
12663;SDS011;6396;58.490;15.528;2023-02-03T00:55:46;1.97;;;1.70;;
12663;SDS011;6396;58.490;15.528;2023-02-03T00:58:13;2.47;;;1.80;;
12663;SDS011;6396;58.490;15.528;2023-02-03T01:00:40;2.50;;;1.77;;
12663;SDS011;6396;58.490;15.528;2023-02-03T01:03:07;3.20;;;1.80;;
12663;SDS011;6396;58.490;15.528;2023-02-03T01:05:36;2.13;;;1.83;;
12663;SDS011;6396;58.490;15.528;2023-02-03T01:08:03;2.10;;;1.60;;
12663;SDS011;6396;58.490;15.528;2023-02-03T01:10:30;2.90;;;2.20;;
12663;SDS011;6396;58.490;15.528;2023-02-03T01:12:57;2.27;;;1.80;;
12663;SDS011;6396;58.490;15.528;2023-02-03T01:15:23;3.07;;;1.80;;
12663;SDS011;6396;58.490;15.528;2023-02-03T01:17:50;3.73;;;1.90;;
12663;SDS011;6396;58.490;15.528;2023-02-03T01:20:17;3.37;;;1.80;;
12663;SDS011;6396;58.490;15.528;2023-02-03T01:22:47;2.20;;;1.77;;
12663;SDS011;6396;58.490;15.528;2023-02-03T01:25:14;2.23;;;1.90;;
12663;SDS011;6396;58.490;15.528;2023-02-03T01:27:40;1.90;;;1.67;;
12663;SDS011;6396;58.490;15.528;2023-02-03T01:30:08;2.47;;;1.57;;
12663;SDS011;6396;58.490;15.528;2023-02-03T01:32:35;2.37;;;2.00;;
12663;SDS011;6396;58.490;15.528;2023-02-03T01:35:02;4.80;;;1.90;;
12663;SDS011;6396;58.490;15.528;2023-02-03T01:37:29;3.13;;;2.00;;
12663;SDS011;6396;58.490;15.528;2023-02-03T01:39:57;2.70;;;1.83;;
12663;SDS011;6396;58.490;15.528;2023-02-03T01:42:24;2.30;;;1.60;;
12663;SDS011;6396;58.490;15.528;2023-02-03T01:44:51;3.27;;;1.80;;
12663;SDS011;6396;58.490;15.528;2023-02-03T01:47:23;2.53;;;1.63;;
12663;SDS011;6396;58.490;15.528;2023-02-03T01:49:58;1.50;;;1.40;;
12663;SDS011;6396;58.490;15.528;2023-02-03T01:52:31;2.00;;;1.20;;
12663;SDS011;6396;58.490;15.528;2023-02-03T01:55:01;1.50;;;1.30;;
12663;SDS011;6396;58.490;15.528;2023-02-03T01:57:31;1.90;;;1.57;;
12663;SDS011;6396;58.490;15.528;2023-02-03T02:00:02;2.50;;;1.57;;
12663;SDS011;6396;58.490;15.528;2023-02-03T02:02:32;2.40;;;1.50;;
12663;SDS011;6396;58.490;15.528;2023-02-03T02:05:01;1.73;;;1.50;;
12663;SDS011;6396;58.490;15.528;2023-02-03T02:07:31;2.87;;;1.43;;
12663;SDS011;6396;58.490;15.528;2023-02-03T02:10:03;2.43;;;1.47;;
12663;SDS011;6396;58.490;15.528;2023-02-03T02:12:31;1.50;;;1.40;;
12663;SDS011;6396;58.490;15.528;2023-02-03T02:14:58;2.37;;;1.33;;
12663;SDS011;6396;58.490;15.528;2023-02-03T02:17:38;1.67;;;1.37;;
12663;SDS011;6396;58.490;15.528;2023-02-03T02:20:30;3.10;;;2.13;;
12663;SDS011;6396;58.490;15.528;2023-02-03T02:23:10;5.17;;;2.93;;
12663;SDS011;6396;58.490;15.528;2023-02-03T02:26:07;5.13;;;3.00;;
12663;SDS011;6396;58.490;15.528;2023-02-03T02:32:20;4.73;;;2.70;;
12663;SDS011;6396;58.490;15.528;2023-02-03T02:35:02;4.70;;;2.60;;
12663;SDS011;6396;58.490;15.528;2023-02-03T02:37:43;4.77;;;2.63;;
12663;SDS011;6396;58.490;15.528;2023-02-03T02:40:19;4.53;;;2.60;;
12663;SDS011;6396;58.490;15.528;2023-02-03T02:42:55;6.07;;;3.27;;
12663;SDS011;6396;58.490;15.528;2023-02-03T02:45:29;3.20;;;2.17;;
12663;SDS011;6396;58.490;15.528;2023-02-03T02:48:00;3.43;;;1.83;;
12663;SDS011;6396;58.490;15.528;2023-02-03T02:50:32;2.70;;;2.20;;
12663;SDS011;6396;58.490;15.528;2023-02-03T02:53:06;1.87;;;1.67;;
12663;SDS011;6396;58.490;15.528;2023-02-03T02:55:36;4.57;;;1.93;;
12663;SDS011;6396;58.490;15.528;2023-02-03T02:58:07;4.20;;;1.77;;
12663;SDS011;6396;58.490;15.528;2023-02-03T03:00:38;3.57;;;1.70;;
12663;SDS011;6396;58.490;15.528;2023-02-03T03:03:14;3.07;;;1.60;;
12663;SDS011;6396;58.490;15.528;2023-02-03T03:05:50;1.93;;;1.70;;
12663;SDS011;6396;58.490;15.528;2023-02-03T03:08:20;3.03;;;1.63;;
12663;SDS011;6396;58.490;15.528;2023-02-03T03:10:54;2.73;;;1.67;;
12663;SDS011;6396;58.490;15.528;2023-02-03T03:13:24;1.90;;;1.70;;
12663;SDS011;6396;58.490;15.528;2023-02-03T03:15:56;2.37;;;1.67;;
12663;SDS011;6396;58.490;15.528;2023-02-03T03:18:30;2.10;;;1.60;;
12663;SDS011;6396;58.490;15.528;2023-02-03T03:21:00;4.43;;;1.53;;
12663;SDS011;6396;58.490;15.528;2023-02-03T03:23:34;1.73;;;1.30;;
12663;SDS011;6396;58.490;15.528;2023-02-03T03:26:07;1.70;;;1.60;;
12663;SDS011;6396;58.490;15.528;2023-02-03T03:28:41;2.40;;;1.70;;
12663;SDS011;6396;58.490;15.528;2023-02-03T03:31:13;1.53;;;1.40;;
12663;SDS011;6396;58.490;15.528;2023-02-03T03:33:42;3.20;;;1.60;;
12663;SDS011;6396;58.490;15.528;2023-02-03T03:36:11;1.83;;;1.40;;
12663;SDS011;6396;58.490;15.528;2023-02-03T03:38:45;2.10;;;1.90;;
12663;SDS011;6396;58.490;15.528;2023-02-03T03:41:22;4.10;;;2.10;;
12663;SDS011;6396;58.490;15.528;2023-02-03T03:43:55;3.20;;;1.93;;
12663;SDS011;6396;58.490;15.528;2023-02-03T03:46:24;3.00;;;2.00;;
12663;SDS011;6396;58.490;15.528;2023-02-03T03:48:56;4.60;;;2.40;;
12663;SDS011;6396;58.490;15.528;2023-02-03T03:51:26;4.33;;;2.50;;
12663;SDS011;6396;58.490;15.528;2023-02-03T03:53:56;3.17;;;2.57;;
12663;SDS011;6396;58.490;15.528;2023-02-03T03:56:30;3.67;;;3.03;;
12663;SDS011;6396;58.490;15.528;2023-02-03T03:59:02;4.27;;;3.20;;
12663;SDS011;6396;58.490;15.528;2023-02-03T04:01:31;4.70;;;3.57;;
12663;SDS011;6396;58.490;15.528;2023-02-03T04:04:01;5.00;;;3.80;;
12663;SDS011;6396;58.490;15.528;2023-02-03T04:06:31;6.47;;;3.80;;
12663;SDS011;6396;58.490;15.528;2023-02-03T04:08:58;7.70;;;4.63;;
12663;SDS011;6396;58.490;15.528;2023-02-03T04:11:26;6.43;;;3.90;;
12663;SDS011;6396;58.490;15.528;2023-02-03T04:14:10;7.17;;;4.00;;
12663;SDS011;6396;58.490;15.528;2023-02-03T04:16:37;10.40;;;4.27;;
12663;SDS011;6396;58.490;15.528;2023-02-03T04:19:06;6.27;;;4.10;;
12663;SDS011;6396;58.490;15.528;2023-02-03T04:21:32;5.90;;;4.13;;
12663;SDS011;6396;58.490;15.528;2023-02-03T04:23:59;7.37;;;4.13;;
12663;SDS011;6396;58.490;15.528;2023-02-03T04:26:26;5.27;;;3.77;;
12663;SDS011;6396;58.490;15.528;2023-02-03T04:28:53;6.37;;;3.87;;
12663;SDS011;6396;58.490;15.528;2023-02-03T04:31:20;7.03;;;4.07;;
12663;SDS011;6396;58.490;15.528;2023-02-03T04:33:47;4.57;;;3.30;;
12663;SDS011;6396;58.490;15.528;2023-02-03T04:36:15;4.50;;;3.07;;
12663;SDS011;6396;58.490;15.528;2023-02-03T04:38:42;5.87;;;3.07;;
12663;SDS011;6396;58.490;15.528;2023-02-03T04:41:09;7.17;;;3.20;;
12663;SDS011;6396;58.490;15.528;2023-02-03T04:43:35;4.60;;;3.10;;
12663;SDS011;6396;58.490;15.528;2023-02-03T04:46:02;6.70;;;3.10;;
12663;SDS011;6396;58.490;15.528;2023-02-03T04:48:29;3.47;;;2.57;;
12663;SDS011;6396;58.490;15.528;2023-02-03T04:50:59;4.03;;;2.67;;
12663;SDS011;6396;58.490;15.528;2023-02-03T04:53:28;2.80;;;2.40;;
12663;SDS011;6396;58.490;15.528;2023-02-03T04:55:56;3.70;;;2.30;;
12663;SDS011;6396;58.490;15.528;2023-02-03T04:58:23;4.70;;;2.63;;
12663;SDS011;6396;58.490;15.528;2023-02-03T05:00:52;2.40;;;2.07;;
12663;SDS011;6396;58.490;15.528;2023-02-03T05:03:19;3.03;;;2.20;;
12663;SDS011;6396;58.490;15.528;2023-02-03T05:05:47;2.80;;;2.30;;
12663;SDS011;6396;58.490;15.528;2023-02-03T05:08:15;6.73;;;2.27;;
12663;SDS011;6396;58.490;15.528;2023-02-03T05:10:43;2.50;;;2.00;;
12663;SDS011;6396;58.490;15.528;2023-02-03T05:13:09;2.93;;;2.20;;
12663;SDS011;6396;58.490;15.528;2023-02-03T05:15:36;3.00;;;1.93;;
12663;SDS011;6396;58.490;15.528;2023-02-03T05:18:03;2.93;;;1.93;;
12663;SDS011;6396;58.490;15.528;2023-02-03T05:20:30;3.33;;;2.27;;
12663;SDS011;6396;58.490;15.528;2023-02-03T05:22:57;2.73;;;2.10;;
12663;SDS011;6396;58.490;15.528;2023-02-03T05:25:25;2.77;;;1.93;;
12663;SDS011;6396;58.490;15.528;2023-02-03T05:27:53;2.40;;;2.00;;
12663;SDS011;6396;58.490;15.528;2023-02-03T05:30:20;4.80;;;2.00;;
12663;SDS011;6396;58.490;15.528;2023-02-03T05:32:47;3.57;;;2.10;;
12663;SDS011;6396;58.490;15.528;2023-02-03T05:35:14;3.17;;;1.80;;
12663;SDS011;6396;58.490;15.528;2023-02-03T05:37:42;2.80;;;1.70;;
12663;SDS011;6396;58.490;15.528;2023-02-03T05:40:10;2.20;;;1.73;;
12663;SDS011;6396;58.490;15.528;2023-02-03T05:42:57;3.27;;;1.60;;
12663;SDS011;6396;58.490;15.528;2023-02-03T05:45:23;2.47;;;1.93;;
12663;SDS011;6396;58.490;15.528;2023-02-03T05:47:50;4.23;;;1.70;;
12663;SDS011;6396;58.490;15.528;2023-02-03T05:50:17;2.47;;;1.70;;
12663;SDS011;6396;58.490;15.528;2023-02-03T05:52:44;2.20;;;1.40;;
12663;SDS011;6396;58.490;15.528;2023-02-03T05:55:11;1.63;;;1.50;;
12663;SDS011;6396;58.490;15.528;2023-02-03T05:57:37;2.70;;;1.77;;
12663;SDS011;6396;58.490;15.528;2023-02-03T06:00:06;2.00;;;1.70;;
12663;SDS011;6396;58.490;15.528;2023-02-03T06:02:34;1.93;;;1.70;;
12663;SDS011;6396;58.490;15.528;2023-02-03T06:05:01;2.10;;;1.50;;
12663;SDS011;6396;58.490;15.528;2023-02-03T06:07:28;2.73;;;1.50;;
12663;SDS011;6396;58.490;15.528;2023-02-03T06:09:54;2.07;;;1.77;;
12663;SDS011;6396;58.490;15.528;2023-02-03T06:12:21;2.43;;;1.60;;
12663;SDS011;6396;58.490;15.528;2023-02-03T06:14:48;1.70;;;1.40;;
12663;SDS011;6396;58.490;15.528;2023-02-03T06:17:16;2.03;;;1.53;;
12663;SDS011;6396;58.490;15.528;2023-02-03T06:19:43;1.70;;;1.60;;
12663;SDS011;6396;58.490;15.528;2023-02-03T06:22:10;2.50;;;1.67;;
12663;SDS011;6396;58.490;15.528;2023-02-03T06:24:36;3.30;;;1.77;;
12663;SDS011;6396;58.490;15.528;2023-02-03T06:27:03;2.57;;;1.60;;
12663;SDS011;6396;58.490;15.528;2023-02-03T06:29:30;2.03;;;1.70;;
12663;SDS011;6396;58.490;15.528;2023-02-03T06:31:57;3.23;;;1.60;;
12663;SDS011;6396;58.490;15.528;2023-02-03T06:34:25;2.33;;;1.70;;
12663;SDS011;6396;58.490;15.528;2023-02-03T06:36:52;2.57;;;1.60;;
12663;SDS011;6396;58.490;15.528;2023-02-03T06:39:19;1.80;;;1.60;;
12663;SDS011;6396;58.490;15.528;2023-02-03T06:41:46;2.37;;;1.93;;
12663;SDS011;6396;58.490;15.528;2023-02-03T06:44:13;1.83;;;1.60;;
12663;SDS011;6396;58.490;15.528;2023-02-03T06:46:39;3.10;;;1.90;;
12663;SDS011;6396;58.490;15.528;2023-02-03T06:49:06;3.03;;;1.80;;
12663;SDS011;6396;58.490;15.528;2023-02-03T06:51:34;2.70;;;1.60;;
12663;SDS011;6396;58.490;15.528;2023-02-03T06:54:02;1.90;;;1.50;;
12663;SDS011;6396;58.490;15.528;2023-02-03T06:56:29;1.90;;;1.33;;
12663;SDS011;6396;58.490;15.528;2023-02-03T06:58:56;1.93;;;1.40;;
12663;SDS011;6396;58.490;15.528;2023-02-03T07:01:23;2.67;;;1.67;;
12663;SDS011;6396;58.490;15.528;2023-02-03T07:03:50;2.03;;;1.57;;
12663;SDS011;6396;58.490;15.528;2023-02-03T07:06:17;2.07;;;1.40;;
12663;SDS011;6396;58.490;15.528;2023-02-03T07:08:45;2.07;;;1.43;;
12663;SDS011;6396;58.490;15.528;2023-02-03T07:11:12;2.17;;;1.60;;
12663;SDS011;6396;58.490;15.528;2023-02-03T07:13:38;1.73;;;1.60;;
12663;SDS011;6396;58.490;15.528;2023-02-03T07:16:05;3.37;;;2.00;;
12663;SDS011;6396;58.490;15.528;2023-02-03T07:18:32;1.53;;;1.43;;
12663;SDS011;6396;58.490;15.528;2023-02-03T07:20:59;2.17;;;1.97;;
12663;SDS011;6396;58.490;15.528;2023-02-03T07:23:26;2.93;;;2.10;;
12663;SDS011;6396;58.490;15.528;2023-02-03T07:25:57;3.13;;;1.50;;
12663;SDS011;6396;58.490;15.528;2023-02-03T07:28:24;3.70;;;1.70;;
12663;SDS011;6396;58.490;15.528;2023-02-03T07:30:51;3.10;;;1.70;;
12663;SDS011;6396;58.490;15.528;2023-02-03T07:33:17;1.63;;;1.50;;
12663;SDS011;6396;58.490;15.528;2023-02-03T07:35:50;3.20;;;1.30;;
12663;SDS011;6396;58.490;15.528;2023-02-03T07:38:17;2.60;;;1.60;;
12663;SDS011;6396;58.490;15.528;2023-02-03T07:40:44;1.93;;;1.40;;
12663;SDS011;6396;58.490;15.528;2023-02-03T07:43:22;4.63;;;1.60;;
12663;SDS011;6396;58.490;15.528;2023-02-03T07:45:49;2.33;;;1.63;;
12663;SDS011;6396;58.490;15.528;2023-02-03T07:48:16;2.20;;;1.43;;
12663;SDS011;6396;58.490;15.528;2023-02-03T07:50:43;1.70;;;1.60;;
12663;SDS011;6396;58.490;15.528;2023-02-03T07:53:09;2.27;;;1.90;;
12663;SDS011;6396;58.490;15.528;2023-02-03T07:55:36;1.77;;;1.60;;
12663;SDS011;6396;58.490;15.528;2023-02-03T07:58:03;3.73;;;2.00;;
12663;SDS011;6396;58.490;15.528;2023-02-03T08:00:31;2.00;;;1.47;;
12663;SDS011;6396;58.490;15.528;2023-02-03T08:02:58;2.83;;;1.53;;
12663;SDS011;6396;58.490;15.528;2023-02-03T08:05:25;2.00;;;1.70;;
12663;SDS011;6396;58.490;15.528;2023-02-03T08:07:53;3.03;;;1.60;;
12663;SDS011;6396;58.490;15.528;2023-02-03T08:10:20;2.03;;;1.67;;
12663;SDS011;6396;58.490;15.528;2023-02-03T08:12:48;1.40;;;1.30;;
12663;SDS011;6396;58.490;15.528;2023-02-03T08:15:17;2.13;;;1.23;;
12663;SDS011;6396;58.490;15.528;2023-02-03T08:17:46;3.07;;;1.37;;
12663;SDS011;6396;58.490;15.528;2023-02-03T08:20:14;1.90;;;1.60;;
12663;SDS011;6396;58.490;15.528;2023-02-03T08:22:41;1.73;;;1.63;;
12663;SDS011;6396;58.490;15.528;2023-02-03T08:25:08;1.63;;;1.40;;
12663;SDS011;6396;58.490;15.528;2023-02-03T08:27:36;2.43;;;1.60;;
12663;SDS011;6396;58.490;15.528;2023-02-03T08:30:03;1.53;;;1.43;;
12663;SDS011;6396;58.490;15.528;2023-02-03T08:32:31;1.90;;;1.70;;
12663;SDS011;6396;58.490;15.528;2023-02-03T08:35:00;1.73;;;1.53;;
12663;SDS011;6396;58.490;15.528;2023-02-03T08:37:27;3.00;;;1.90;;
12663;SDS011;6396;58.490;15.528;2023-02-03T08:39:55;2.53;;;1.70;;
12663;SDS011;6396;58.490;15.528;2023-02-03T08:42:27;1.90;;;1.50;;
12663;SDS011;6396;58.490;15.528;2023-02-03T08:45:03;1.80;;;1.67;;
12663;SDS011;6396;58.490;15.528;2023-02-03T08:47:31;2.10;;;1.60;;
12663;SDS011;6396;58.490;15.528;2023-02-03T08:49:57;2.37;;;1.77;;
12663;SDS011;6396;58.490;15.528;2023-02-03T08:52:26;2.57;;;1.70;;
12663;SDS011;6396;58.490;15.528;2023-02-03T08:54:52;2.50;;;1.50;;
12663;SDS011;6396;58.490;15.528;2023-02-03T08:57:19;3.03;;;1.90;;
12663;SDS011;6396;58.490;15.528;2023-02-03T08:59:46;1.70;;;1.60;;
12663;SDS011;6396;58.490;15.528;2023-02-03T09:02:14;3.40;;;1.83;;
12663;SDS011;6396;58.490;15.528;2023-02-03T09:04:43;2.07;;;1.77;;
12663;SDS011;6396;58.490;15.528;2023-02-03T09:07:12;1.70;;;1.60;;
12663;SDS011;6396;58.490;15.528;2023-02-03T09:09:40;2.00;;;1.80;;
12663;SDS011;6396;58.490;15.528;2023-02-03T09:12:07;2.13;;;1.47;;
12663;SDS011;6396;58.490;15.528;2023-02-03T09:14:36;3.67;;;1.90;;
12663;SDS011;6396;58.490;15.528;2023-02-03T09:17:03;2.27;;;1.87;;
12663;SDS011;6396;58.490;15.528;2023-02-03T09:19:32;2.87;;;1.97;;
12663;SDS011;6396;58.490;15.528;2023-02-03T09:21:59;2.80;;;1.80;;
12663;SDS011;6396;58.490;15.528;2023-02-03T09:24:28;3.30;;;2.30;;
12663;SDS011;6396;58.490;15.528;2023-02-03T09:26:54;2.73;;;2.07;;
12663;SDS011;6396;58.490;15.528;2023-02-03T09:29:22;3.47;;;1.97;;
12663;SDS011;6396;58.490;15.528;2023-02-03T09:31:49;3.73;;;1.90;;
12663;SDS011;6396;58.490;15.528;2023-02-03T09:34:17;3.20;;;1.53;;
12663;SDS011;6396;58.490;15.528;2023-02-03T09:36:44;2.53;;;1.77;;
12663;SDS011;6396;58.490;15.528;2023-02-03T09:39:11;3.07;;;2.20;;
12663;SDS011;6396;58.490;15.528;2023-02-03T09:44:46;2.27;;;1.63;;
12663;SDS011;6396;58.490;15.528;2023-02-03T09:47:19;2.17;;;1.80;;
12663;SDS011;6396;58.490;15.528;2023-02-03T09:49:50;4.17;;;1.90;;
12663;SDS011;6396;58.490;15.528;2023-02-03T09:52:21;2.23;;;1.70;;
12663;SDS011;6396;58.490;15.528;2023-02-03T09:54:52;2.67;;;1.70;;
12663;SDS011;6396;58.490;15.528;2023-02-03T09:57:23;2.60;;;1.93;;
12663;SDS011;6396;58.490;15.528;2023-02-03T09:59:53;2.37;;;1.80;;
12663;SDS011;6396;58.490;15.528;2023-02-03T10:02:29;2.10;;;1.90;;
12663;SDS011;6396;58.490;15.528;2023-02-03T10:05:10;2.00;;;1.80;;
12663;SDS011;6396;58.490;15.528;2023-02-03T10:07:45;3.13;;;1.73;;
12663;SDS011;6396;58.490;15.528;2023-02-03T10:10:20;2.00;;;1.73;;
12663;SDS011;6396;58.490;15.528;2023-02-03T10:13:11;2.27;;;1.90;;
12663;SDS011;6396;58.490;15.528;2023-02-03T10:16:01;3.73;;;2.00;;
12663;SDS011;6396;58.490;15.528;2023-02-03T10:18:39;2.27;;;1.83;;
12663;SDS011;6396;58.490;15.528;2023-02-03T10:21:11;2.77;;;1.80;;
12663;SDS011;6396;58.490;15.528;2023-02-03T10:23:42;2.40;;;1.70;;
12663;SDS011;6396;58.490;15.528;2023-02-03T10:26:12;3.17;;;1.70;;
12663;SDS011;6396;58.490;15.528;2023-02-03T10:28:44;3.97;;;1.73;;
12663;SDS011;6396;58.490;15.528;2023-02-03T10:31:18;3.90;;;1.60;;
12663;SDS011;6396;58.490;15.528;2023-02-03T10:33:47;4.73;;;1.87;;
12663;SDS011;6396;58.490;15.528;2023-02-03T10:36:19;2.50;;;1.90;;
12663;SDS011;6396;58.490;15.528;2023-02-03T10:38:50;3.23;;;1.70;;
12663;SDS011;6396;58.490;15.528;2023-02-03T10:41:24;2.60;;;1.83;;
12663;SDS011;6396;58.490;15.528;2023-02-03T10:43:55;2.00;;;1.60;;
12663;SDS011;6396;58.490;15.528;2023-02-03T10:46:26;3.47;;;1.97;;
12663;SDS011;6396;58.490;15.528;2023-02-03T10:48:54;3.77;;;1.93;;
12663;SDS011;6396;58.490;15.528;2023-02-03T10:51:22;4.23;;;1.80;;
12663;SDS011;6396;58.490;15.528;2023-02-03T10:53:51;3.37;;;1.70;;
12663;SDS011;6396;58.490;15.528;2023-02-03T10:56:22;4.87;;;1.80;;
12663;SDS011;6396;58.490;15.528;2023-02-03T10:58:53;2.30;;;1.83;;
12663;SDS011;6396;58.490;15.528;2023-02-03T11:01:24;2.17;;;1.70;;
12663;SDS011;6396;58.490;15.528;2023-02-03T11:04:19;3.50;;;1.63;;
12663;SDS011;6396;58.490;15.528;2023-02-03T11:06:52;2.50;;;1.50;;
12663;SDS011;6396;58.490;15.528;2023-02-03T11:09:22;3.50;;;1.60;;
12663;SDS011;6396;58.490;15.528;2023-02-03T11:12:06;4.40;;;1.80;;
12663;SDS011;6396;58.490;15.528;2023-02-03T11:14:37;3.30;;;1.77;;
12663;SDS011;6396;58.490;15.528;2023-02-03T11:17:07;1.77;;;1.60;;
12663;SDS011;6396;58.490;15.528;2023-02-03T11:19:41;2.97;;;1.60;;
12663;SDS011;6396;58.490;15.528;2023-02-03T11:22:09;1.60;;;1.47;;
12663;SDS011;6396;58.490;15.528;2023-02-03T11:24:37;2.10;;;1.50;;
12663;SDS011;6396;58.490;15.528;2023-02-03T11:27:08;2.30;;;1.30;;
12663;SDS011;6396;58.490;15.528;2023-02-03T11:29:37;1.70;;;1.30;;
12663;SDS011;6396;58.490;15.528;2023-02-03T11:32:13;1.70;;;1.60;;
12663;SDS011;6396;58.490;15.528;2023-02-03T11:34:48;1.57;;;1.43;;
12663;SDS011;6396;58.490;15.528;2023-02-03T11:37:25;1.60;;;1.50;;
12663;SDS011;6396;58.490;15.528;2023-02-03T11:40:21;3.27;;;1.57;;
12663;SDS011;6396;58.490;15.528;2023-02-03T11:43:00;2.70;;;1.50;;
12663;SDS011;6396;58.490;15.528;2023-02-03T11:45:32;1.90;;;1.50;;
12663;SDS011;6396;58.490;15.528;2023-02-03T11:48:06;1.63;;;1.30;;
12663;SDS011;6396;58.490;15.528;2023-02-03T11:50:45;3.77;;;1.77;;
12663;SDS011;6396;58.490;15.528;2023-02-03T11:53:21;1.67;;;1.27;;
12663;SDS011;6396;58.490;15.528;2023-02-03T11:56:02;2.27;;;1.53;;
12663;SDS011;6396;58.490;15.528;2023-02-03T12:04:59;3.03;;;1.57;;
12663;SDS011;6396;58.490;15.528;2023-02-03T12:07:39;3.43;;;1.80;;
12663;SDS011;6396;58.490;15.528;2023-02-03T12:10:26;4.00;;;1.97;;
12663;SDS011;6396;58.490;15.528;2023-02-03T12:12:59;3.73;;;1.50;;
12663;SDS011;6396;58.490;15.528;2023-02-03T12:15:42;3.57;;;1.90;;
12663;SDS011;6396;58.490;15.528;2023-02-03T12:18:26;2.27;;;1.70;;
12663;SDS011;6396;58.490;15.528;2023-02-03T12:21:26;2.70;;;1.70;;
12663;SDS011;6396;58.490;15.528;2023-02-03T12:24:06;3.90;;;2.20;;
12663;SDS011;6396;58.490;15.528;2023-02-03T12:26:43;2.43;;;2.17;;
12663;SDS011;6396;58.490;15.528;2023-02-03T12:29:17;3.60;;;2.23;;
12663;SDS011;6396;58.490;15.528;2023-02-03T12:31:50;4.57;;;2.53;;
12663;SDS011;6396;58.490;15.528;2023-02-03T12:34:27;2.40;;;2.07;;
12663;SDS011;6396;58.490;15.528;2023-02-03T12:37:01;3.50;;;2.27;;
12663;SDS011;6396;58.490;15.528;2023-02-03T12:39:34;3.47;;;2.50;;
12663;SDS011;6396;58.490;15.528;2023-02-03T12:42:10;2.93;;;2.07;;
12663;SDS011;6396;58.490;15.528;2023-02-03T12:44:42;2.87;;;2.20;;
12663;SDS011;6396;58.490;15.528;2023-02-03T12:47:16;3.80;;;2.10;;
12663;SDS011;6396;58.490;15.528;2023-02-03T12:49:52;5.53;;;2.83;;
12663;SDS011;6396;58.490;15.528;2023-02-03T12:52:23;4.10;;;2.37;;
12663;SDS011;6396;58.490;15.528;2023-02-03T12:54:58;5.20;;;2.70;;
12663;SDS011;6396;58.490;15.528;2023-02-03T12:57:33;3.63;;;2.20;;
12663;SDS011;6396;58.490;15.528;2023-02-03T13:00:08;4.10;;;2.30;;
12663;SDS011;6396;58.490;15.528;2023-02-03T13:02:46;2.07;;;1.63;;
12663;SDS011;6396;58.490;15.528;2023-02-03T13:05:23;3.00;;;2.00;;
12663;SDS011;6396;58.490;15.528;2023-02-03T13:07:57;4.53;;;2.30;;
12663;SDS011;6396;58.490;15.528;2023-02-03T13:10:35;3.93;;;2.07;;
12663;SDS011;6396;58.490;15.528;2023-02-03T13:13:08;2.77;;;1.77;;
12663;SDS011;6396;58.490;15.528;2023-02-03T13:15:42;3.20;;;1.73;;
12663;SDS011;6396;58.490;15.528;2023-02-03T13:18:13;2.10;;;1.90;;
12663;SDS011;6396;58.490;15.528;2023-02-03T13:20:50;4.80;;;1.70;;
12663;SDS011;6396;58.490;15.528;2023-02-03T13:23:17;1.50;;;1.40;;
12663;SDS011;6396;58.490;15.528;2023-02-03T13:25:49;2.20;;;1.50;;
12663;SDS011;6396;58.490;15.528;2023-02-03T13:28:29;2.63;;;1.60;;
12663;SDS011;6396;58.490;15.528;2023-02-03T13:31:17;1.83;;;1.60;;
12663;SDS011;6396;58.490;15.528;2023-02-03T13:34:01;1.60;;;1.30;;
12663;SDS011;6396;58.490;15.528;2023-02-03T13:36:46;1.20;;;1.10;;
12663;SDS011;6396;58.490;15.528;2023-02-03T13:39:42;2.17;;;1.30;;
12663;SDS011;6396;58.490;15.528;2023-02-03T13:42:20;1.83;;;1.33;;
12663;SDS011;6396;58.490;15.528;2023-02-03T13:44:52;1.80;;;1.40;;
12663;SDS011;6396;58.490;15.528;2023-02-03T13:47:21;2.40;;;1.40;;
12663;SDS011;6396;58.490;15.528;2023-02-03T13:49:52;3.10;;;1.30;;
12663;SDS011;6396;58.490;15.528;2023-02-03T13:52:28;2.30;;;1.57;;
12663;SDS011;6396;58.490;15.528;2023-02-03T13:55:00;2.37;;;1.50;;
12663;SDS011;6396;58.490;15.528;2023-02-03T13:57:30;2.87;;;1.77;;
12663;SDS011;6396;58.490;15.528;2023-02-03T14:00:00;1.60;;;1.30;;
12663;SDS011;6396;58.490;15.528;2023-02-03T14:02:39;2.60;;;1.53;;
12663;SDS011;6396;58.490;15.528;2023-02-03T14:20:39;1.80;;;1.20;;
12663;SDS011;6396;58.490;15.528;2023-02-03T14:23:27;1.50;;;1.40;;
12663;SDS011;6396;58.490;15.528;2023-02-03T14:26:04;2.13;;;1.50;;
12663;SDS011;6396;58.490;15.528;2023-02-03T14:28:36;2.03;;;1.67;;
12663;SDS011;6396;58.490;15.528;2023-02-03T14:31:08;1.70;;;1.50;;
12663;SDS011;6396;58.490;15.528;2023-02-03T14:36:45;1.50;;;1.40;;
12663;SDS011;6396;58.490;15.528;2023-02-03T14:42:30;1.70;;;1.43;;
12663;SDS011;6396;58.490;15.528;2023-02-03T14:45:27;3.90;;;1.63;;
12663;SDS011;6396;58.490;15.528;2023-02-03T14:48:07;2.70;;;1.57;;
12663;SDS011;6396;58.490;15.528;2023-02-03T14:50:50;3.73;;;1.53;;
12663;SDS011;6396;58.490;15.528;2023-02-03T14:53:31;1.87;;;1.70;;
12663;SDS011;6396;58.490;15.528;2023-02-03T14:56:10;4.63;;;1.83;;
12663;SDS011;6396;58.490;15.528;2023-02-03T14:58:44;2.03;;;1.70;;
12663;SDS011;6396;58.490;15.528;2023-02-03T15:01:24;3.87;;;1.60;;
12663;SDS011;6396;58.490;15.528;2023-02-03T15:04:22;3.97;;;1.80;;
12663;SDS011;6396;58.490;15.528;2023-02-03T15:06:50;5.80;;;2.13;;
12663;SDS011;6396;58.490;15.528;2023-02-03T15:09:25;3.67;;;2.20;;
12663;SDS011;6396;58.490;15.528;2023-02-03T15:11:55;3.80;;;2.17;;
12663;SDS011;6396;58.490;15.528;2023-02-03T15:14:23;3.23;;;2.17;;
12663;SDS011;6396;58.490;15.528;2023-02-03T15:16:56;4.93;;;2.07;;
12663;SDS011;6396;58.490;15.528;2023-02-03T15:19:26;2.67;;;1.80;;
12663;SDS011;6396;58.490;15.528;2023-02-03T15:21:57;2.37;;;2.17;;
12663;SDS011;6396;58.490;15.528;2023-02-03T15:24:23;2.63;;;2.37;;
12663;SDS011;6396;58.490;15.528;2023-02-03T15:26:51;3.00;;;2.43;;
12663;SDS011;6396;58.490;15.528;2023-02-03T15:29:25;3.97;;;2.40;;
12663;SDS011;6396;58.490;15.528;2023-02-03T15:31:56;2.77;;;2.10;;
12663;SDS011;6396;58.490;15.528;2023-02-03T15:34:33;3.17;;;2.23;;
12663;SDS011;6396;58.490;15.528;2023-02-03T15:37:06;2.27;;;2.03;;
12663;SDS011;6396;58.490;15.528;2023-02-03T15:39:42;4.07;;;2.50;;
12663;SDS011;6396;58.490;15.528;2023-02-03T15:42:19;3.73;;;2.07;;
12663;SDS011;6396;58.490;15.528;2023-02-03T15:44:52;2.67;;;2.10;;
12663;SDS011;6396;58.490;15.528;2023-02-03T15:47:25;3.10;;;2.17;;